createdAt,value
2022-12-08T00:01:30.515Z,31.50
2022-12-08T00:04:02.202Z,32.22
2022-12-08T00:06:55.106Z,29.05
2022-12-08T00:09:36.291Z,33.08
2022-12-08T00:12:06.560Z,29.33
2022-12-08T00:14:45.530Z,25.23
2022-12-08T00:17:15.465Z,29.15
2022-12-08T00:19:43.881Z,25.85
2022-12-08T00:22:12.620Z,27.55
2022-12-08T00:24:41.866Z,29.52
2022-12-08T00:27:11.142Z,33.42
2022-12-08T00:29:38.523Z,25.33
2022-12-08T00:32:06.462Z,28.40
2022-12-08T00:34:33.807Z,26.00
2022-12-08T00:37:01.107Z,28.33
2022-12-08T00:39:28.031Z,27.17
2022-12-08T00:42:12.832Z,34.80
2022-12-08T00:44:44.840Z,32.15
2022-12-08T00:47:13.002Z,31.00
2022-12-08T00:49:40.051Z,29.55
2022-12-08T00:52:07.787Z,29.60
2022-12-08T00:54:34.657Z,28.58
2022-12-08T00:57:01.771Z,30.20
2022-12-08T00:59:28.640Z,28.80
2022-12-08T01:01:55.691Z,29.48
2022-12-08T01:04:22.571Z,30.92
2022-12-08T01:06:49.669Z,28.77
2022-12-08T01:09:18.103Z,26.58
2022-12-08T01:11:46.037Z,33.60
2022-12-08T01:14:13.409Z,32.67
2022-12-08T01:16:43.856Z,27.40
2022-12-08T01:19:16.697Z,26.40
2022-12-08T01:21:45.201Z,24.50
2022-12-08T01:24:16.050Z,24.40
2022-12-08T01:26:43.429Z,26.65
2022-12-08T01:29:11.570Z,27.65
2022-12-08T01:31:39.070Z,28.38
2022-12-08T01:34:06.532Z,27.73
2022-12-08T01:36:37.251Z,28.25
2022-12-08T01:39:09.216Z,25.23
2022-12-08T01:41:38.395Z,24.35
2022-12-08T01:44:08.345Z,23.83
2022-12-08T01:46:41.530Z,24.17
2022-12-08T01:52:38.367Z,27.23
2022-12-08T01:55:15.353Z,28.23
2022-12-08T01:57:47.915Z,26.33
2022-12-08T02:00:19.106Z,23.35
2022-12-08T02:03:13.528Z,28.30
2022-12-08T02:05:41.885Z,30.52
2022-12-08T02:08:12.291Z,21.10
2022-12-08T02:10:42.224Z,32.00
2022-12-08T02:13:17.054Z,28.08
2022-12-08T02:16:07.091Z,28.48
2022-12-08T02:19:30.321Z,29.13
2022-12-08T02:22:14.507Z,30.48
2022-12-08T02:24:50.327Z,26.60
2022-12-08T02:28:00.422Z,29.63
2022-12-08T02:31:07.442Z,30.20
2022-12-08T02:34:06.560Z,32.20
2022-12-08T02:37:12.932Z,32.13
2022-12-08T02:40:08.426Z,34.55
2022-12-08T02:42:57.451Z,40.08
2022-12-08T02:45:53.746Z,36.88
2022-12-08T02:48:21.051Z,36.55
2022-12-08T02:50:48.010Z,42.22
2022-12-08T02:55:51.622Z,36.22
2022-12-08T02:58:27.152Z,35.03
2022-12-08T03:01:10.980Z,32.85
2022-12-08T03:04:25.123Z,35.30
2022-12-08T03:07:19.365Z,35.55
2022-12-08T03:10:05.271Z,42.00
2022-12-08T03:12:54.197Z,40.50
2022-12-08T03:15:22.601Z,44.63
2022-12-08T03:17:54.883Z,55.05
2022-12-08T03:20:25.822Z,47.57
2022-12-08T03:22:56.141Z,46.70
2022-12-08T03:25:31.451Z,42.22
2022-12-08T03:27:59.736Z,46.75
2022-12-08T03:30:30.988Z,50.95
2022-12-08T03:33:11.062Z,48.65
2022-12-08T03:35:40.809Z,40.33
2022-12-08T03:38:15.362Z,38.50
2022-12-08T03:40:43.030Z,45.35
2022-12-08T03:43:10.782Z,44.47
2022-12-08T03:45:37.677Z,44.10
2022-12-08T03:48:04.698Z,45.70
2022-12-08T03:50:31.575Z,42.47
2022-12-08T03:52:58.456Z,34.42
2022-12-08T03:55:25.302Z,37.70
2022-12-08T03:57:52.199Z,42.83
2022-12-08T04:00:19.394Z,39.60
2022-12-08T04:02:46.402Z,39.50
2022-12-08T04:05:13.274Z,44.25
2022-12-08T04:07:40.333Z,43.13
2022-12-08T04:10:08.157Z,39.33
2022-12-08T04:12:35.108Z,43.75
2022-12-08T04:15:01.867Z,45.83
2022-12-08T04:17:28.832Z,46.42
2022-12-08T04:19:55.646Z,38.10
2022-12-08T04:22:22.610Z,41.55
2022-12-08T04:24:49.546Z,41.65
2022-12-08T04:27:16.478Z,31.95
2022-12-08T04:29:43.267Z,41.78
2022-12-08T04:32:10.175Z,38.08
2022-12-08T04:34:36.971Z,45.28
2022-12-08T04:37:03.838Z,48.65
2022-12-08T04:39:30.754Z,45.45
2022-12-08T04:41:57.662Z,43.33
2022-12-08T04:44:24.607Z,36.58
2022-12-08T04:46:51.526Z,51.50
2022-12-08T04:49:18.592Z,40.20
2022-12-08T04:51:45.406Z,47.63
2022-12-08T04:54:12.232Z,47.35
2022-12-08T04:56:39.059Z,39.83
2022-12-08T04:59:05.945Z,39.67
2022-12-08T05:01:32.842Z,50.00
2022-12-08T05:03:59.711Z,36.47
2022-12-08T05:06:26.523Z,36.45
2022-12-08T05:08:53.484Z,50.47
2022-12-08T05:11:20.298Z,50.95
2022-12-08T05:13:47.853Z,49.47
2022-12-08T05:16:16.612Z,42.72
2022-12-08T05:18:44.057Z,52.88
2022-12-08T05:21:11.657Z,60.00
2022-12-08T05:23:38.704Z,71.07
2022-12-08T05:26:05.929Z,52.08
2022-12-08T05:28:42.634Z,43.60
2022-12-08T05:31:12.229Z,72.85
2022-12-08T05:33:40.149Z,61.97
2022-12-08T05:36:08.310Z,53.97
2022-12-08T05:38:35.371Z,66.43
2022-12-08T05:41:02.324Z,53.80
2022-12-08T05:43:29.156Z,57.10
2022-12-08T05:45:56.123Z,63.80
2022-12-08T05:48:23.090Z,60.90
2022-12-08T05:50:51.606Z,43.25
2022-12-08T05:53:20.758Z,42.08
2022-12-08T05:55:48.344Z,38.97
2022-12-08T05:58:18.553Z,52.10
2022-12-08T06:00:47.046Z,66.22
2022-12-08T06:03:16.340Z,74.65
2022-12-08T06:05:45.734Z,54.28
2022-12-08T06:08:13.154Z,47.33
2022-12-08T06:10:42.208Z,51.08
2022-12-08T06:13:09.778Z,44.92
2022-12-08T06:15:38.312Z,38.67
2022-12-08T06:18:06.392Z,42.08
2022-12-08T06:20:34.300Z,47.65
2022-12-08T06:23:01.229Z,40.17
2022-12-08T06:25:28.150Z,32.72
2022-12-08T06:27:55.090Z,40.45
2022-12-08T06:30:21.903Z,38.08
2022-12-08T06:32:48.849Z,49.70
2022-12-08T06:35:15.751Z,46.22
2022-12-08T06:37:42.527Z,40.60
2022-12-08T06:40:10.126Z,37.75
2022-12-08T06:42:46.793Z,35.90
2022-12-08T06:45:16.895Z,30.52
2022-12-08T06:47:44.671Z,32.92
2022-12-08T06:50:13.688Z,36.30
2022-12-08T06:52:50.828Z,30.67
2022-12-08T06:55:50.751Z,31.20
2022-12-08T06:58:09.827Z,29.45
2022-12-08T07:00:36.720Z,30.05
2022-12-08T07:03:03.674Z,33.83
2022-12-08T07:05:30.648Z,37.17
2022-12-08T07:07:57.481Z,29.85
2022-12-08T07:10:24.406Z,28.58
2022-12-08T07:12:51.244Z,25.50
2022-12-08T07:15:19.064Z,29.65
2022-12-08T07:17:47.232Z,39.38
2022-12-08T07:20:14.807Z,37.47
2022-12-08T07:22:42.028Z,33.95
2022-12-08T07:25:09.410Z,36.67
2022-12-08T07:27:36.354Z,35.35
2022-12-08T07:30:03.864Z,33.33
2022-12-08T07:32:30.916Z,28.92
2022-12-08T07:34:57.743Z,30.60
2022-12-08T07:37:24.550Z,26.00
2022-12-08T07:39:51.433Z,26.73
2022-12-08T07:42:18.385Z,27.30
2022-12-08T07:44:45.325Z,28.60
2022-12-08T07:47:12.135Z,26.75
2022-12-08T07:49:38.951Z,23.88
2022-12-08T07:52:05.846Z,26.05
2022-12-08T07:54:32.695Z,36.20
2022-12-08T07:57:00.273Z,26.60
2022-12-08T07:59:27.163Z,21.75
2022-12-08T08:02:21.055Z,22.25
2022-12-08T08:04:40.939Z,24.83
2022-12-08T08:07:07.798Z,21.27
2022-12-08T08:09:34.722Z,23.60
2022-12-08T08:12:29.651Z,28.10
2022-12-08T08:14:48.679Z,25.80
2022-12-08T08:17:15.776Z,26.40
2022-12-08T08:19:42.649Z,21.60
2022-12-08T08:22:09.598Z,27.17
2022-12-08T08:24:40.237Z,30.17
2022-12-08T08:27:10.130Z,30.08
2022-12-08T08:29:37.368Z,25.90
2022-12-08T08:32:04.346Z,27.75
2022-12-08T08:34:31.362Z,25.73
2022-12-08T08:36:58.564Z,28.27
2022-12-08T08:39:25.522Z,27.48
2022-12-08T08:41:52.763Z,28.90
2022-12-08T08:44:19.691Z,29.70
2022-12-08T08:46:46.637Z,31.15
2022-12-08T08:49:13.968Z,29.42
2022-12-08T08:51:40.912Z,34.55
2022-12-08T08:54:07.922Z,31.15
2022-12-08T08:56:34.764Z,35.63
2022-12-08T08:59:03.014Z,33.78
2022-12-08T09:01:30.687Z,39.75
2022-12-08T09:03:58.696Z,32.13
2022-12-08T09:06:28.119Z,35.33
2022-12-08T09:08:55.173Z,37.25
2022-12-08T09:11:23.500Z,30.98
2022-12-08T09:13:53.205Z,32.15
2022-12-08T09:16:20.993Z,34.67
2022-12-08T09:18:51.511Z,30.02
2022-12-08T09:21:24.912Z,28.83
2022-12-08T09:23:57.646Z,32.63
2022-12-08T09:26:26.238Z,33.00
2022-12-08T09:28:55.901Z,29.15
2022-12-08T09:31:23.987Z,34.53
2022-12-08T09:33:53.952Z,29.75
2022-12-08T09:36:21.369Z,29.55
2022-12-08T09:38:49.106Z,32.45
2022-12-08T09:41:38.940Z,28.20
2022-12-08T09:44:33.586Z,29.23
2022-12-08T09:47:01.855Z,27.98
2022-12-08T09:49:47.149Z,28.38
2022-12-08T09:52:29.708Z,30.25
2022-12-08T09:55:03.878Z,21.00
2022-12-08T09:57:32.062Z,25.58
2022-12-08T10:00:07.161Z,27.17
2022-12-08T10:02:34.690Z,27.85
2022-12-08T10:05:01.731Z,28.50
2022-12-08T10:08:07.539Z,22.70
2022-12-08T10:10:45.618Z,29.92
2022-12-08T10:13:24.515Z,25.13
2022-12-08T10:16:10.481Z,27.63
2022-12-08T10:18:40.403Z,26.98
2022-12-08T10:21:19.854Z,24.42
2022-12-08T10:23:52.103Z,24.77
2022-12-08T10:26:21.529Z,23.60
2022-12-08T10:28:48.938Z,26.98
2022-12-08T10:31:23.179Z,27.02
2022-12-08T10:34:01.740Z,22.00
2022-12-08T10:36:56.576Z,22.77
2022-12-08T10:39:43.742Z,25.52
2022-12-08T10:42:21.979Z,23.35
2022-12-08T10:44:56.041Z,23.42
2022-12-08T10:47:28.592Z,20.00
2022-12-08T10:50:18.291Z,23.33
2022-12-08T10:52:46.867Z,24.33
2022-12-08T10:55:19.495Z,23.23
2022-12-08T10:57:48.944Z,23.58
2022-12-08T11:00:21.177Z,21.15
2022-12-08T11:03:03.574Z,19.17
2022-12-08T11:05:36.397Z,19.13
2022-12-08T11:08:05.729Z,20.15
2022-12-08T11:10:43.614Z,23.42
2022-12-08T11:13:24.667Z,18.35
2022-12-08T11:15:54.265Z,16.30
2022-12-08T11:18:28.973Z,19.65
2022-12-08T11:21:33.132Z,18.55
2022-12-08T11:24:20.820Z,18.70
2022-12-08T11:27:02.544Z,17.45
2022-12-08T11:29:32.981Z,18.60
2022-12-08T11:32:05.994Z,18.23
2022-12-08T11:34:45.428Z,15.48
2022-12-08T11:37:29.927Z,21.48
2022-12-08T11:40:07.498Z,19.50
2022-12-08T11:43:02.653Z,22.60
2022-12-08T11:45:37.581Z,19.88
2022-12-08T11:48:22.397Z,21.02
2022-12-08T11:50:58.220Z,22.45
2022-12-08T11:53:50.315Z,17.27
2022-12-08T11:56:28.175Z,23.27
2022-12-08T11:59:00.737Z,17.80
2022-12-08T12:01:27.959Z,15.80
2022-12-08T12:04:22.347Z,16.08
2022-12-08T12:07:26.199Z,20.52
2022-12-08T12:10:24.188Z,16.80
2022-12-08T12:13:32.302Z,14.80
2022-12-08T12:16:40.917Z,16.00
2022-12-08T12:19:15.660Z,15.52
2022-12-08T12:21:48.466Z,17.88
2022-12-08T12:24:27.351Z,23.58
2022-12-08T12:27:28.422Z,20.67
2022-12-08T12:30:00.683Z,11.82
2022-12-08T12:32:45.814Z,15.53
2022-12-08T12:35:42.732Z,15.30
2022-12-08T12:38:44.748Z,12.32
2022-12-08T12:41:13.731Z,12.63
2022-12-08T12:43:41.054Z,11.85
2022-12-08T12:46:23.246Z,12.07
2022-12-08T12:48:53.489Z,14.32
2022-12-08T12:51:47.826Z,12.80
2022-12-08T12:54:26.732Z,13.23
2022-12-08T12:56:55.537Z,13.38
2022-12-08T12:59:55.212Z,12.27
2022-12-08T13:02:43.865Z,11.95
2022-12-08T13:05:47.061Z,16.00
2022-12-08T13:08:24.635Z,11.27
2022-12-08T13:11:06.955Z,11.05
2022-12-08T13:13:33.797Z,11.13
2022-12-08T13:16:18.832Z,10.73
2022-12-08T13:18:52.490Z,12.05
2022-12-08T13:24:14.091Z,10.60
2022-12-08T13:27:11.400Z,12.70
2022-12-08T13:29:39.583Z,13.20
2022-12-08T13:32:12.147Z,10.60
2022-12-08T13:34:45.617Z,10.73
2022-12-08T13:37:12.784Z,9.27
2022-12-08T13:39:39.608Z,9.73
2022-12-08T13:42:12.423Z,11.88
2022-12-08T13:45:39.753Z,12.65
2022-12-08T13:55:27.010Z,9.55
2022-12-08T13:57:34.962Z,10.10
2022-12-08T14:00:13.234Z,14.05
2022-12-08T14:02:47.714Z,14.27
2022-12-08T14:05:19.404Z,8.32
2022-12-08T14:07:53.619Z,16.98
2022-12-08T14:10:29.191Z,12.23
2022-12-08T14:13:01.601Z,11.18
2022-12-08T14:15:37.207Z,10.02
2022-12-08T14:18:20.085Z,10.98
2022-12-08T14:21:20.354Z,13.30
2022-12-08T14:23:47.879Z,13.07
2022-12-08T14:26:14.684Z,9.15
2022-12-08T14:28:45.066Z,11.23
2022-12-08T14:31:14.579Z,8.50
2022-12-08T14:33:42.492Z,9.32
2022-12-08T14:36:20.987Z,11.00
2022-12-08T14:38:55.869Z,11.55
2022-12-08T14:41:32.361Z,12.30
2022-12-08T14:44:01.541Z,14.38
2022-12-08T14:46:29.077Z,12.95
2022-12-08T14:48:57.757Z,13.30
2022-12-08T14:51:32.227Z,17.20
2022-12-08T14:54:05.777Z,14.05
2022-12-08T14:56:41.929Z,10.40
2022-12-08T14:59:34.588Z,14.70
2022-12-08T15:02:16.423Z,12.98
2022-12-08T15:04:47.549Z,13.70
2022-12-08T15:07:20.302Z,35.83
2022-12-08T15:10:05.728Z,56.08
2022-12-08T15:12:33.436Z,37.95
2022-12-08T15:15:23.065Z,15.07
2022-12-08T15:18:02.364Z,13.20
2022-12-08T15:21:04.720Z,14.70
2022-12-08T15:23:38.367Z,13.40
2022-12-08T15:26:06.098Z,13.05
2022-12-08T15:28:32.948Z,11.30
2022-12-08T15:31:00.306Z,17.67
2022-12-08T15:33:27.372Z,13.35
2022-12-08T15:35:54.264Z,14.07
2022-12-08T15:38:26.378Z,13.23
2022-12-08T15:40:55.311Z,13.75
2022-12-08T15:43:23.028Z,12.43
2022-12-08T15:45:59.019Z,11.13
2022-12-08T15:48:29.548Z,12.40
2022-12-08T15:50:57.229Z,12.88
2022-12-08T15:53:24.112Z,11.48
2022-12-08T15:56:26.485Z,13.68
2022-12-08T15:58:56.118Z,10.23
2022-12-08T16:01:24.835Z,11.35
2022-12-08T16:09:54.337Z,11.73
2022-12-08T16:13:47.975Z,15.32
2022-12-08T16:15:55.183Z,13.85
2022-12-08T16:18:30.385Z,13.57
2022-12-08T16:21:31.499Z,13.05
2022-12-08T16:23:45.524Z,12.57
2022-12-08T16:29:03.583Z,15.10
2022-12-08T16:31:30.746Z,12.60
2022-12-08T16:33:57.787Z,14.98
2022-12-08T16:36:24.642Z,17.23
2022-12-08T16:38:51.461Z,18.13
2022-12-08T16:41:37.414Z,17.02
2022-12-08T16:44:06.432Z,22.70
2022-12-08T16:46:34.870Z,21.45
2022-12-08T16:49:02.227Z,18.05
2022-12-08T16:51:29.380Z,17.58
2022-12-08T16:53:58.312Z,18.15
2022-12-08T16:56:32.201Z,19.67
2022-12-08T16:59:00.718Z,16.05
2022-12-08T17:01:27.806Z,19.33
2022-12-08T17:06:42.236Z,18.55
2022-12-08T17:09:09.061Z,19.90
2022-12-08T17:11:42.588Z,17.50
2022-12-08T17:14:12.269Z,17.05
2022-12-08T17:16:39.783Z,21.00
2022-12-08T17:19:06.699Z,22.13
2022-12-08T17:21:33.564Z,25.38
2022-12-08T17:24:00.404Z,21.35
2022-12-08T17:26:27.259Z,22.13
2022-12-08T17:29:01.789Z,21.35
2022-12-08T17:31:31.651Z,26.13
2022-12-08T17:34:05.267Z,28.15
2022-12-08T17:36:32.614Z,32.22
2022-12-08T17:39:00.791Z,25.83
2022-12-08T17:41:28.708Z,28.33
2022-12-08T17:43:58.170Z,31.48
2022-12-08T17:46:25.256Z,27.30
2022-12-08T17:48:52.635Z,27.55
2022-12-08T17:51:20.156Z,29.83
2022-12-08T17:53:46.960Z,30.25
2022-12-08T17:56:21.201Z,30.88
2022-12-08T17:58:52.877Z,29.52
2022-12-08T18:01:22.935Z,30.77
2022-12-08T18:03:50.412Z,34.30
2022-12-08T18:06:20.180Z,30.30
2022-12-08T18:08:47.168Z,32.38
2022-12-08T18:11:19.197Z,40.05
2022-12-08T18:13:48.390Z,36.85
2022-12-08T18:16:16.773Z,31.75
2022-12-08T18:18:43.745Z,36.33
2022-12-08T18:21:10.976Z,35.55
2022-12-08T18:23:39.996Z,30.70
2022-12-08T18:26:08.675Z,24.95
2022-12-08T18:28:37.148Z,27.85
2022-12-08T18:31:10.695Z,26.80
2022-12-08T18:33:39.937Z,25.58
2022-12-08T18:36:16.480Z,27.30
2022-12-08T18:38:43.512Z,25.88
2022-12-08T18:41:14.512Z,28.02
2022-12-08T18:43:41.368Z,26.70
2022-12-08T18:46:12.244Z,22.35
2022-12-08T18:48:43.968Z,25.13
2022-12-08T18:51:19.652Z,23.42
2022-12-08T18:53:47.845Z,22.67
2022-12-08T18:56:31.286Z,23.65
2022-12-08T19:01:33.303Z,21.85
2022-12-08T19:04:27.414Z,27.83
2022-12-08T19:06:53.318Z,30.98
2022-12-08T19:09:20.590Z,29.35
2022-12-08T19:11:47.455Z,33.45
2022-12-08T19:14:14.321Z,47.08
2022-12-08T19:16:41.284Z,40.03
2022-12-08T19:19:08.177Z,37.65
2022-12-08T19:21:35.071Z,44.80
2022-12-08T19:24:01.910Z,32.90
2022-12-08T19:26:29.159Z,28.88
2022-12-08T19:28:56.748Z,32.38
2022-12-08T19:31:23.759Z,25.55
2022-12-08T19:33:50.764Z,35.15
2022-12-08T19:36:23.436Z,35.38
2022-12-08T19:39:09.404Z,38.78
2022-12-08T19:41:55.391Z,33.65
2022-12-08T19:44:34.467Z,35.33
2022-12-08T19:47:02.219Z,34.00
2022-12-08T19:49:29.835Z,34.78
2022-12-08T19:51:57.034Z,32.88
2022-12-08T19:54:25.507Z,28.20
2022-12-08T19:56:52.380Z,29.80
2022-12-08T19:59:19.327Z,25.13
2022-12-08T20:01:48.513Z,27.48
2022-12-08T20:04:16.445Z,28.77
2022-12-08T20:06:44.919Z,25.77
2022-12-08T20:09:13.265Z,25.85
2022-12-08T20:11:40.721Z,29.15
2022-12-08T20:14:08.059Z,25.38
2022-12-08T20:16:35.356Z,30.00
2022-12-08T20:19:02.591Z,27.35
2022-12-08T20:21:29.868Z,31.35
2022-12-08T20:23:56.842Z,31.67
2022-12-08T20:26:24.340Z,27.30
2022-12-08T20:28:51.291Z,29.48
2022-12-08T20:31:25.493Z,32.47
2022-12-08T20:33:52.936Z,25.85
2022-12-08T20:36:21.798Z,25.92
2022-12-08T20:38:51.353Z,29.40
2022-12-08T20:41:19.734Z,29.05
2022-12-08T20:43:47.997Z,25.23
2022-12-08T20:46:17.279Z,24.35
2022-12-08T20:48:44.794Z,23.85
2022-12-08T20:51:17.243Z,25.38
2022-12-08T20:53:45.379Z,27.17
2022-12-08T20:56:18.298Z,31.52
2022-12-08T20:58:45.484Z,37.85
2022-12-08T21:01:15.512Z,33.45
2022-12-08T21:03:43.824Z,35.78
2022-12-08T21:06:11.533Z,30.17
2022-12-08T21:08:39.396Z,31.08
2022-12-08T21:11:08.532Z,28.05
2022-12-08T21:13:37.604Z,31.38
2022-12-08T21:16:05.473Z,34.10
2022-12-08T21:18:38.933Z,25.88
2022-12-08T21:21:15.470Z,28.98
2022-12-08T21:23:42.913Z,35.85
2022-12-08T21:26:15.664Z,29.67
2022-12-08T21:28:43.297Z,29.90
2022-12-08T21:31:14.460Z,29.70
2022-12-08T21:33:41.579Z,23.45
2022-12-08T21:36:13.754Z,27.90
2022-12-08T21:38:41.913Z,31.60
2022-12-08T21:41:15.828Z,27.70
2022-12-08T21:43:43.270Z,25.42
2022-12-08T21:46:17.354Z,26.58
2022-12-08T21:48:44.520Z,26.67
2022-12-08T21:51:11.594Z,26.23
2022-12-08T21:53:38.639Z,24.25
2022-12-08T21:56:09.582Z,29.15
2022-12-08T21:58:36.746Z,25.75
2022-12-08T22:01:11.380Z,25.95
2022-12-08T22:03:39.967Z,24.40
2022-12-08T22:06:09.865Z,24.25
2022-12-08T22:08:37.355Z,25.02
2022-12-08T22:11:06.134Z,28.23
2022-12-08T22:13:41.345Z,38.97
2022-12-08T22:16:11.678Z,40.22
2022-12-08T22:18:39.190Z,41.92
2022-12-08T22:21:16.376Z,50.30
2022-12-08T22:23:44.155Z,55.95
2022-12-08T22:26:11.865Z,62.17
2022-12-08T22:28:41.563Z,57.63
2022-12-08T22:31:11.319Z,60.10
2022-12-08T22:33:40.311Z,53.75
2022-12-08T22:36:11.809Z,46.25
2022-12-08T22:38:39.311Z,55.10
2022-12-08T22:41:06.528Z,56.92
2022-12-08T22:43:34.661Z,57.33
2022-12-08T22:46:01.652Z,53.42
2022-12-08T22:48:28.812Z,50.90
2022-12-08T22:50:59.958Z,50.80
2022-12-08T22:53:26.906Z,49.83
2022-12-08T22:55:54.226Z,45.95
2022-12-08T22:58:21.292Z,58.60
2022-12-08T23:00:48.352Z,64.63
2022-12-08T23:03:15.424Z,40.60
2022-12-08T23:05:42.848Z,43.67
2022-12-08T23:08:15.440Z,58.58
2022-12-08T23:10:44.329Z,58.15
2022-12-08T23:13:12.107Z,73.53
2022-12-08T23:15:40.211Z,75.72
2022-12-08T23:18:08.612Z,76.30
2022-12-08T23:20:35.717Z,65.88
2022-12-08T23:23:02.664Z,67.03
2022-12-08T23:25:29.556Z,66.68
2022-12-08T23:27:56.434Z,55.05
2022-12-08T23:30:24.979Z,62.88
2022-12-08T23:32:56.363Z,70.80
2022-12-08T23:35:23.404Z,88.00
2022-12-08T23:37:50.863Z,53.75
2022-12-08T23:40:17.765Z,58.40
2022-12-08T23:42:44.805Z,63.42
2022-12-08T23:45:12.069Z,43.03
2022-12-08T23:47:38.969Z,64.55
2022-12-08T23:50:07.976Z,123.88
2022-12-08T23:52:35.713Z,107.88
2022-12-08T23:55:03.277Z,77.50
2022-12-08T23:57:30.562Z,60.10
2022-12-08T23:59:57.489Z,519.33
